Norway House, Canada
Current Conditions -  °F | °C
As of 3:00 AM on Wednesday 22 Oct 2014 (Local Time) from CYNE Reporting Station
Clear Clear  
Wind Chill: 44°   Ceiling: Unl
Heat Index: 48°   Visibility: 9mi
Dew Point: 41°   Wind: 10mph
Humidity: 76%   Direction: 180°S
Pressure: 29.67"   Gusts: 20mph
Location:  54°N, 97.77°W
Report Text: CYNE 220800Z AUTO 18009G17KT 9SM CLR 09/05 A2967 RMK WX MISG VIS MISG PCPN MISG SLP053
Loading
Personal Weather Stations






























Interactive Weather Map
Tropical Storm Tracking
New forecast layout! Learn more

10-Day Weather Forecast

Advertisements
Track Severe Weather on mobile